createdAt,value
2023-05-02T00:04:10.275Z,16.20
2023-05-02T00:09:04.560Z,16.02
2023-05-02T00:13:59.110Z,16.11
2023-05-02T00:18:52.272Z,15.41
2023-05-02T00:23:45.524Z,15.10
2023-05-02T00:28:38.832Z,15.69
2023-05-02T00:33:33.577Z,15.31
2023-05-02T00:38:26.957Z,15.51
2023-05-02T00:43:31.793Z,15.71
2023-05-02T00:48:27.068Z,15.69
2023-05-02T00:53:23.075Z,15.46
2023-05-02T00:58:21.738Z,15.20
2023-05-02T01:03:27.218Z,14.92
2023-05-02T01:08:29.601Z,15.69
2023-05-02T01:13:25.952Z,15.27
2023-05-02T01:18:23.753Z,15.11
2023-05-02T01:23:27.129Z,15.47
2023-05-02T01:28:37.093Z,15.23
2023-05-02T01:33:32.836Z,15.43
2023-05-02T01:38:27.504Z,15.64
2023-05-02T01:43:22.357Z,15.59
2023-05-02T01:48:18.321Z,15.21
2023-05-02T01:53:14.790Z,15.63
2023-05-02T01:58:08.887Z,15.64
2023-05-02T02:03:03.961Z,15.09
2023-05-02T02:07:57.219Z,15.36
2023-05-02T02:12:55.373Z,14.48
2023-05-02T02:17:55.487Z,15.30
2023-05-02T02:22:54.466Z,14.93
2023-05-02T02:27:49.109Z,14.62
2023-05-02T02:32:43.943Z,13.64
2023-05-02T02:37:42.998Z,13.85
2023-05-02T02:42:45.388Z,13.83
2023-05-02T02:47:46.097Z,13.35
2023-05-02T02:52:54.785Z,13.13
2023-05-02T02:57:53.878Z,13.25
2023-05-02T03:02:49.697Z,13.05
2023-05-02T03:07:43.205Z,12.92
2023-05-02T03:12:36.889Z,12.67
2023-05-02T03:17:31.639Z,12.62
2023-05-02T03:22:26.449Z,11.98
2023-05-02T03:27:20.143Z,12.53
2023-05-02T03:32:13.858Z,11.48
2023-05-02T03:37:09.921Z,11.76
2023-05-02T03:42:05.678Z,11.74
2023-05-02T03:46:59.251Z,11.65
2023-05-02T03:51:56.297Z,11.82
2023-05-02T03:56:55.681Z,12.04
2023-05-02T04:01:56.303Z,11.46
2023-05-02T04:07:02.346Z,11.06
2023-05-02T04:11:57.361Z,12.27
2023-05-02T04:16:51.434Z,12.18
2023-05-02T04:21:52.569Z,12.36
2023-05-02T04:26:47.954Z,11.26
2023-05-02T04:31:41.988Z,12.18
2023-05-02T04:36:37.185Z,12.41
2023-05-02T04:41:33.280Z,12.54
2023-05-02T04:46:31.489Z,12.54
2023-05-02T04:51:25.415Z,12.55
2023-05-02T04:56:19.295Z,13.03
2023-05-02T05:01:16.958Z,12.94
2023-05-02T05:06:12.725Z,13.38
2023-05-02T05:11:06.674Z,13.37
2023-05-02T05:16:00.493Z,13.67
2023-05-02T05:20:58.493Z,14.12
2023-05-02T05:25:51.657Z,14.58
2023-05-02T05:30:46.369Z,14.98
2023-05-02T05:35:43.149Z,15.19
2023-05-02T05:40:38.288Z,15.74
2023-05-02T05:45:33.674Z,15.83
2023-05-02T05:50:27.502Z,16.13
2023-05-02T05:55:20.858Z,16.07
2023-05-02T06:00:17.991Z,16.39
2023-05-02T06:05:15.118Z,17.29
2023-05-02T06:10:11.073Z,17.57
2023-05-02T06:15:07.761Z,17.76
2023-05-02T06:20:06.827Z,17.85
2023-05-02T06:25:00.996Z,17.84
2023-05-02T06:29:54.586Z,18.45
2023-05-02T06:34:47.827Z,18.40
2023-05-02T06:39:42.450Z,18.79
2023-05-02T06:44:35.791Z,19.14
2023-05-02T06:49:29.018Z,18.96
2023-05-02T06:54:22.341Z,19.43
2023-05-02T06:59:17.082Z,19.59
2023-05-02T07:04:10.483Z,19.69
2023-05-02T07:09:05.075Z,19.62
2023-05-02T07:13:58.430Z,20.01
2023-05-02T07:18:53.101Z,20.33
2023-05-02T07:23:46.345Z,20.22
2023-05-02T07:28:39.997Z,20.70
2023-05-02T07:33:33.604Z,21.15
2023-05-02T07:38:29.043Z,20.85
2023-05-02T07:43:22.936Z,21.70
2023-05-02T07:48:16.665Z,21.79
2023-05-02T07:53:11.086Z,22.03
2023-05-02T07:58:05.859Z,21.94
2023-05-02T08:02:59.178Z,22.28
2023-05-02T08:07:52.536Z,22.56
2023-05-02T08:12:45.953Z,22.79
2023-05-02T08:17:40.709Z,22.58
2023-05-02T08:22:34.023Z,22.43
2023-05-02T08:27:27.162Z,23.68
2023-05-02T08:32:20.302Z,24.67
2023-05-02T08:37:15.130Z,25.57
2023-05-02T08:42:08.992Z,26.23
2023-05-02T08:47:04.593Z,26.79
2023-05-02T08:52:00.631Z,27.52
2023-05-02T08:56:55.842Z,27.94
2023-05-02T09:01:51.144Z,27.58
2023-05-02T09:06:44.368Z,28.50
2023-05-02T09:11:40.716Z,28.35
2023-05-02T09:16:40.603Z,28.95
2023-05-02T09:21:43.485Z,29.12
2023-05-02T09:26:36.723Z,28.86
2023-05-02T09:31:54.023Z,28.02
2023-05-02T09:36:54.598Z,28.39
2023-05-02T09:41:49.504Z,27.91
2023-05-02T09:46:43.459Z,27.63
2023-05-02T09:51:37.053Z,27.22
2023-05-02T09:56:31.663Z,26.72
2023-05-02T10:01:25.195Z,26.67
2023-05-02T10:06:23.462Z,26.48
2023-05-02T10:11:16.874Z,26.45
2023-05-02T10:16:14.307Z,26.78
2023-05-02T10:21:10.246Z,27.15
2023-05-02T10:26:03.945Z,27.61
2023-05-02T10:30:58.467Z,27.94
2023-05-02T10:35:54.645Z,28.14
2023-05-02T10:40:57.969Z,28.98
2023-05-02T10:45:55.832Z,29.52
2023-05-02T10:50:57.320Z,29.98
2023-05-02T10:56:18.662Z,30.58
2023-05-02T11:01:36.728Z,31.16
2023-05-02T11:06:33.712Z,31.84
2023-05-02T11:11:46.037Z,32.30
2023-05-02T11:17:12.070Z,32.46
2023-05-02T11:22:33.596Z,32.16
2023-05-02T11:27:44.086Z,32.64
2023-05-02T11:33:24.328Z,32.93
2023-05-02T11:38:22.642Z,33.07
2023-05-02T11:43:21.521Z,33.46
2023-05-02T11:48:17.608Z,33.21
2023-05-02T11:53:14.825Z,34.06
2023-05-02T11:58:14.899Z,34.39
2023-05-02T12:03:08.528Z,33.60
2023-05-02T12:08:04.013Z,34.56
2023-05-02T12:13:18.493Z,34.41
2023-05-02T12:18:12.607Z,34.52
2023-05-02T12:23:07.201Z,34.79
2023-05-02T12:28:01.611Z,34.98
2023-05-02T12:32:59.845Z,34.43
2023-05-02T12:37:53.599Z,35.04
2023-05-02T12:43:00.538Z,35.28
2023-05-02T12:47:53.903Z,35.25
2023-05-02T12:52:50.089Z,35.19
2023-05-02T12:57:44.054Z,35.18
2023-05-02T13:02:38.869Z,34.74
2023-05-02T13:07:32.018Z,35.23
2023-05-02T13:12:26.702Z,35.36
2023-05-02T13:17:20.187Z,35.73
2023-05-02T13:22:13.526Z,35.54
2023-05-02T13:27:06.786Z,35.05
2023-05-02T13:32:04.109Z,34.65
2023-05-02T13:36:58.038Z,34.65
2023-05-02T13:41:51.532Z,34.80
2023-05-02T13:46:44.997Z,34.09
2023-05-02T13:51:40.623Z,34.53
2023-05-02T13:56:34.378Z,34.76
2023-05-02T14:01:28.882Z,35.40
2023-05-02T14:06:22.875Z,35.17
2023-05-02T14:11:18.091Z,34.86
2023-05-02T14:16:11.523Z,35.13
2023-05-02T14:21:04.936Z,35.04
2023-05-02T14:25:59.445Z,35.11
2023-05-02T14:30:54.200Z,34.93
2023-05-02T14:35:50.031Z,34.73
2023-05-02T14:40:43.241Z,34.14
2023-05-02T14:45:36.504Z,33.42
2023-05-02T14:50:31.155Z,31.76
2023-05-02T14:55:24.479Z,29.93
2023-05-02T15:00:18.975Z,28.11
2023-05-02T15:05:13.157Z,28.14
2023-05-02T15:10:09.407Z,27.49
2023-05-02T15:15:02.658Z,26.88
2023-05-02T15:19:58.352Z,26.59
2023-05-02T15:24:57.688Z,25.74
2023-05-02T15:29:52.474Z,26.05
2023-05-02T15:34:46.910Z,25.62
2023-05-02T15:39:42.870Z,25.58
2023-05-02T15:44:39.058Z,25.37
2023-05-02T15:49:34.697Z,24.84
2023-05-02T15:54:28.247Z,25.06
2023-05-02T15:59:21.523Z,24.77
2023-05-02T16:04:15.651Z,24.84
2023-05-02T16:09:10.848Z,24.26
2023-05-02T16:14:04.279Z,24.63
2023-05-02T16:18:57.505Z,24.29
2023-05-02T16:23:50.740Z,24.04
2023-05-02T16:28:45.489Z,24.16
2023-05-02T16:33:39.277Z,23.34
2023-05-02T16:38:36.481Z,23.84
2023-05-02T16:43:29.719Z,23.66
2023-05-02T16:48:24.623Z,23.41
2023-05-02T16:53:17.889Z,22.76
2023-05-02T16:58:11.122Z,22.73
2023-05-02T17:03:05.624Z,22.89
2023-05-02T17:08:00.389Z,22.74
2023-05-02T17:12:56.022Z,22.41
2023-05-02T17:17:49.425Z,22.28
2023-05-02T17:22:42.894Z,22.09
2023-05-02T17:32:40.521Z,21.81
2023-05-02T17:37:34.014Z,21.78
2023-05-02T17:42:27.243Z,21.57
2023-05-02T17:47:29.733Z,21.43
2023-05-02T17:52:22.918Z,21.04
2023-05-02T17:57:25.782Z,21.02
2023-05-02T18:02:18.928Z,20.92
2023-05-02T18:07:13.446Z,20.86
2023-05-02T18:12:07.013Z,20.75
2023-05-02T18:17:00.260Z,20.61
2023-05-02T18:21:55.623Z,20.26
2023-05-02T18:26:56.328Z,20.15
2023-05-02T18:31:52.695Z,19.66
2023-05-02T18:36:46.225Z,19.40
2023-05-02T18:41:39.514Z,19.85
2023-05-02T18:46:36.360Z,19.71
2023-05-02T18:51:30.260Z,19.45
2023-05-02T18:56:23.441Z,18.80
2023-05-02T19:01:20.248Z,19.05
2023-05-02T19:06:15.333Z,18.92
2023-05-02T19:11:09.285Z,18.95
2023-05-02T19:16:02.628Z,18.77
2023-05-02T19:20:57.337Z,18.44
2023-05-02T19:25:53.046Z,17.97
2023-05-02T19:30:49.165Z,18.32
2023-05-02T19:35:42.589Z,18.25
2023-05-02T19:40:35.952Z,17.99
2023-05-02T19:45:30.573Z,18.06
2023-05-02T19:50:24.494Z,17.77
2023-05-02T19:55:18.634Z,17.22
2023-05-02T20:00:17.353Z,17.57
2023-05-02T20:05:12.812Z,17.08
2023-05-02T20:10:10.149Z,17.11
2023-05-02T20:15:08.146Z,17.29
2023-05-02T20:20:07.330Z,17.42
2023-05-02T20:25:02.334Z,17.35
2023-05-02T20:29:56.094Z,17.12
2023-05-02T20:34:49.357Z,17.22
2023-05-02T20:39:42.501Z,17.17
2023-05-02T20:44:36.938Z,17.09
2023-05-02T20:49:33.278Z,17.01
2023-05-02T20:54:26.832Z,16.77
2023-05-02T20:59:20.261Z,16.55
2023-05-02T21:04:14.892Z,16.88
2023-05-02T21:09:09.569Z,16.85
2023-05-02T21:14:02.702Z,16.67
2023-05-02T21:18:56.043Z,16.72
2023-05-02T21:23:50.587Z,16.28
2023-05-02T21:28:43.734Z,16.66
2023-05-02T21:33:36.872Z,16.66
2023-05-02T21:38:30.536Z,16.49
2023-05-02T21:43:25.030Z,16.53
2023-05-02T21:48:18.490Z,16.42
2023-05-02T21:53:12.151Z,16.41
2023-05-02T21:58:05.465Z,16.52
2023-05-02T22:03:01.743Z,16.49
2023-05-02T22:07:55.717Z,16.15
2023-05-02T22:12:48.876Z,16.40
2023-05-02T22:17:43.377Z,16.15
2023-05-02T22:22:40.636Z,16.19
2023-05-02T22:27:33.828Z,16.19
2023-05-02T22:32:26.969Z,15.77
2023-05-02T22:37:20.136Z,15.75
2023-05-02T22:42:14.550Z,15.13
2023-05-02T22:47:08.586Z,15.79
2023-05-02T22:52:02.709Z,15.70
2023-05-02T22:56:55.759Z,15.35
2023-05-02T23:01:50.873Z,15.10
2023-05-02T23:06:44.131Z,15.25
2023-05-02T23:11:37.303Z,15.47
2023-05-02T23:16:30.501Z,15.43
2023-05-02T23:21:25.097Z,14.80
2023-05-02T23:26:18.294Z,15.28
2023-05-02T23:31:11.489Z,15.11
2023-05-02T23:36:06.816Z,15.07
2023-05-02T23:41:01.299Z,14.72
2023-05-02T23:45:54.481Z,14.84
2023-05-02T23:50:47.764Z,14.81
2023-05-02T23:55:41.550Z,14.59
